createdAt,value
2023-04-09T00:05:49.105Z,8.17
2023-04-09T00:15:51.666Z,10.17
2023-04-09T00:25:53.950Z,11.13
2023-04-09T00:35:56.556Z,12.30
2023-04-09T00:46:00.276Z,10.50
2023-04-09T00:56:03.867Z,10.83
2023-04-09T01:06:16.651Z,9.53
2023-04-09T01:16:22.601Z,12.07
2023-04-09T01:26:54.889Z,13.43
2023-04-09T01:37:01.365Z,10.70
2023-04-09T01:47:04.491Z,15.40
2023-04-09T01:57:06.788Z,12.23
2023-04-09T02:07:26.258Z,15.93
2023-04-09T02:17:28.499Z,15.80
2023-04-09T02:27:30.880Z,14.93
2023-04-09T02:37:33.251Z,17.00
2023-04-09T02:47:35.654Z,14.43
2023-04-09T02:57:37.993Z,15.07
2023-04-09T03:07:40.178Z,12.77
2023-04-09T03:17:42.462Z,11.20
2023-04-09T03:27:44.858Z,12.13
2023-04-09T03:37:47.572Z,14.20
2023-04-09T03:47:49.954Z,15.87
2023-04-09T03:57:52.279Z,11.37
2023-04-09T04:07:55.418Z,13.17
2023-04-09T04:17:57.672Z,15.47
2023-04-09T04:28:00.111Z,15.53
2023-04-09T04:38:02.386Z,12.83
2023-04-09T04:48:04.911Z,15.37
2023-04-09T04:58:07.264Z,16.07
2023-04-09T05:08:09.592Z,15.63
2023-04-09T05:18:11.945Z,14.40
2023-04-09T05:28:14.475Z,16.87
2023-04-09T05:38:16.875Z,14.50
2023-04-09T05:48:19.942Z,18.80
2023-04-09T05:58:22.380Z,18.63
2023-04-09T06:08:24.874Z,14.37
2023-04-09T06:18:27.686Z,17.67
2023-04-09T06:28:30.193Z,16.83
2023-04-09T06:38:32.860Z,18.30
2023-04-09T06:48:35.492Z,15.27
2023-04-09T06:58:37.821Z,19.37
2023-04-09T07:08:40.234Z,17.57
2023-04-09T07:18:42.980Z,18.53
2023-04-09T07:28:45.799Z,14.77
2023-04-09T07:38:49.166Z,16.47
2023-04-09T07:48:51.856Z,15.33
2023-04-09T07:58:55.070Z,17.50
2023-04-09T08:08:57.925Z,16.07
2023-04-09T08:19:00.739Z,14.37
2023-04-09T08:29:03.175Z,16.27
2023-04-09T08:39:05.629Z,12.43
2023-04-09T08:49:10.000Z,15.10
2023-04-09T08:59:17.593Z,10.33
2023-04-09T09:09:19.954Z,10.97
2023-04-09T09:19:24.972Z,9.20
2023-04-09T09:29:28.609Z,7.47
2023-04-09T09:39:47.018Z,9.00
2023-04-09T09:49:53.052Z,7.10
2023-04-09T10:00:02.335Z,6.23
2023-04-09T10:10:07.925Z,5.40
2023-04-09T10:20:27.466Z,5.15
2023-04-09T10:30:34.095Z,3.75
2023-04-09T10:40:48.088Z,4.90
2023-04-09T10:50:52.987Z,4.37
2023-04-09T11:00:56.173Z,2.83
2023-04-09T11:11:02.220Z,4.57
2023-04-09T11:21:04.928Z,4.12
2023-04-09T11:31:07.634Z,3.35
2023-04-09T11:41:13.397Z,3.15
2023-04-09T11:51:16.154Z,3.15
2023-04-09T12:01:18.872Z,3.25
2023-04-09T12:11:21.354Z,3.53
2023-04-09T12:21:27.602Z,3.28
2023-04-09T12:31:30.301Z,2.83
2023-04-09T12:41:32.788Z,3.30
2023-04-09T12:51:35.531Z,2.53
2023-04-09T13:01:38.878Z,2.80
2023-04-09T13:11:42.771Z,3.00
2023-04-09T13:21:45.646Z,2.05
2023-04-09T13:31:48.278Z,2.93
2023-04-09T13:41:51.489Z,3.37
2023-04-09T13:51:54.171Z,2.58
2023-04-09T14:01:57.202Z,2.53
2023-04-09T14:11:59.931Z,2.40
2023-04-09T14:22:02.678Z,2.78
2023-04-09T14:32:05.191Z,4.00
2023-04-09T14:42:07.772Z,2.70
2023-04-09T14:52:10.353Z,2.77
2023-04-09T15:02:13.238Z,2.77
2023-04-09T15:12:15.939Z,2.67
2023-04-09T15:22:18.483Z,2.28
2023-04-09T15:32:21.884Z,3.70
2023-04-09T15:42:24.289Z,2.67
2023-04-09T15:52:27.370Z,3.15
2023-04-09T16:02:30.239Z,3.37
2023-04-09T16:12:32.752Z,4.00
2023-04-09T16:22:35.600Z,3.83
2023-04-09T16:32:38.280Z,2.45
2023-04-09T16:42:41.322Z,4.60
2023-04-09T16:52:44.639Z,2.67
2023-04-09T17:02:47.256Z,2.93
2023-04-09T17:12:50.969Z,3.45
2023-04-09T17:22:53.748Z,2.40
2023-04-09T17:32:56.492Z,1.60
2023-04-09T17:42:59.034Z,3.20
2023-04-09T17:53:02.093Z,3.42
2023-04-09T18:03:05.036Z,3.12
2023-04-09T18:13:07.854Z,2.03
2023-04-09T18:23:10.628Z,2.47
2023-04-09T18:33:14.837Z,3.07
2023-04-09T18:43:17.695Z,3.28
2023-04-09T18:53:20.432Z,2.67
2023-04-09T19:03:24.193Z,2.67
2023-04-09T19:13:26.921Z,3.07
2023-04-09T19:23:30.163Z,3.00
2023-04-09T19:33:32.721Z,3.20
2023-04-09T19:43:36.023Z,5.40
2023-04-09T19:53:40.449Z,3.00
2023-04-09T20:03:43.127Z,7.27
2023-04-09T20:13:47.437Z,11.10
2023-04-09T20:23:49.689Z,18.20
2023-04-09T20:33:51.982Z,19.60
2023-04-09T20:43:54.465Z,23.13
2023-04-09T20:53:58.388Z,14.30
2023-04-09T21:04:01.054Z,12.20
2023-04-09T21:14:04.440Z,18.40
2023-04-09T21:24:06.913Z,10.87
2023-04-09T21:34:09.800Z,8.37
2023-04-09T21:44:12.542Z,7.47
2023-04-09T21:54:15.262Z,9.17
2023-04-09T22:04:17.927Z,7.20
2023-04-09T22:14:22.204Z,5.00
2023-04-09T22:24:27.340Z,11.10
2023-04-09T22:44:32.349Z,10.43
2023-04-09T22:54:34.895Z,20.40
2023-04-09T23:04:37.544Z,12.37
2023-04-09T23:14:39.857Z,8.97
2023-04-09T23:24:42.130Z,20.60
2023-04-09T23:34:44.473Z,10.90
2023-04-09T23:44:47.012Z,9.37
2023-04-09T23:54:53.641Z,7.97
